Time;durP1;ratioP1;P1;durP2;ratioP2;P2;SDS_P1;SDS_P2;PMS_P1;PMS_P2;Temp;Humidity;BMP_temperature;BMP_pressure;BME280_temperature;BME280_humidity;BME280_pressure;Samples;Min_cycle;Max_cycle;Signal;HPM_P1;HPM_P2
2021/12/07 00:05:57;;;;;;;8.73;4.07;;;;;;;;;;20912527;28;20095;-65
2021/12/07 00:15:59;;;;;;;9.82;5.95;;;;;;;;;;20912387;28;20049;-65
2021/12/07 00:26:01;;;;;;;13.20;5.72;;;;;;;;;;20929053;28;20136;-68
2021/12/07 00:36:04;;;;;;;20.52;8.80;;;;;;;;;;20928609;28;20049;-68
2021/12/07 00:46:08;;;;;;;13.23;7.20;;;;;;;;;;20927232;28;20053;-61
2021/12/07 00:56:10;;;;;;;9.00;5.00;;;;;;;;;;20927106;28;20053;-63
2021/12/07 01:26:38;;;;;;;9.75;4.75;;;;;;;;;;20924481;28;20420;-64
2021/12/07 01:58:06;;;;;;;9.25;5.22;;;;;;;;;;20923704;28;20075;-62
2021/12/07 02:08:10;;;;;;;11.60;5.50;;;;;;;;;;20922013;28;20044;-65
2021/12/07 02:18:13;;;;;;;10.65;5.50;;;;;;;;;;20920601;28;20526;-67
2021/12/07 02:28:16;;;;;;;9.32;5.05;;;;;;;;;;20920021;28;20049;-71
2021/12/07 02:38:19;;;;;;;7.50;3.95;;;;;;;;;;20918651;28;20053;-68
2021/12/07 02:48:31;;;;;;;9.82;4.95;;;;;;;;;;20917894;28;20048;-67
2021/12/07 02:58:44;;;;;;;6.25;3.50;;;;;;;;;;20917836;28;20106;-68
2021/12/07 03:29:38;;;;;;;4.75;3.38;;;;;;;;;;20915627;28;20403;-64
2021/12/07 03:39:42;;;;;;;;;;;;;;;;;;20915110;28;20128;-62
2021/12/07 03:49:45;;;;;;;4.80;3.58;;;;;;;;;;20913376;28;19920;-63
2021/12/07 03:59:48;;;;;;;9.02;4.10;;;;;;;;;;20912494;28;20384;-65
2021/12/07 04:10:01;;;;;;;6.10;4.20;;;;;;;;;;20913112;28;20483;-63
2021/12/07 04:20:06;;;;;;;6.13;5.10;;;;;;;;;;20912318;28;20407;-63
2021/12/07 04:30:14;;;;;;;9.53;4.67;;;;;;;;;;20912076;28;20045;-63
2021/12/07 04:40:19;;;;;;;7.75;4.55;;;;;;;;;;20911888;28;20067;-63
2021/12/07 05:00:31;;;;;;;7.47;4.13;;;;;;;;;;20911058;28;19928;-64
2021/12/07 05:34:39;;;;;;;10.07;7.20;;;;;;;;;;20932175;28;20128;-64
2021/12/07 05:41:34;;;;;;;11.18;8.02;;;;;;;;;;20924240;28;20057;-64
2021/12/07 05:51:37;;;;;;;10.38;7.20;;;;;;;;;;20923365;28;20049;-66
2021/12/07 06:01:41;;;;;;;13.27;8.07;;;;;;;;;;20923230;28;20124;-64
2021/12/07 06:11:47;;;;;;;12.88;7.93;;;;;;;;;;20921359;28;20079;-67
2021/12/07 06:21:50;;;;;;;14.23;8.15;;;;;;;;;;20920191;28;20059;-65
2021/12/07 06:31:53;;;;;;;8.90;5.75;;;;;;;;;;20920974;28;20127;-70
2021/12/07 06:41:57;;;;;;;9.38;5.95;;;;;;;;;;20934379;28;20052;-66
2021/12/07 06:52:01;;;;;;;7.95;6.03;;;;;;;;;;20918308;28;20064;-64
2021/12/07 07:02:03;;;;;;;12.23;9.05;;;;;;;;;;20917872;28;20494;-68
2021/12/07 07:12:06;;;;;;;15.48;8.50;;;;;;;;;;20916231;28;20049;-67
2021/12/07 07:22:09;;;;;;;14.18;8.85;;;;;;;;;;20915552;28;20055;-67
2021/12/07 07:32:12;;;;;;;14.00;8.40;;;;;;;;;;20914455;28;20483;-63
2021/12/07 07:42:16;;;;;;;13.82;8.05;;;;;;;;;;20914056;28;20101;-69
2021/12/07 07:52:24;;;;;;;14.13;9.15;;;;;;;;;;20916528;28;20466;-65
2021/12/07 08:02:46;;;;;;;11.48;7.82;;;;;;;;;;20913577;28;20502;-67
2021/12/07 08:13:06;;;;;;;11.65;8.57;;;;;;;;;;20913056;28;20045;-65
2021/12/07 08:23:19;;;;;;;18.77;8.52;;;;;;;;;;20913526;28;20144;-70
2021/12/07 08:33:30;;;;;;;21.45;10.15;;;;;;;;;;20911698;28;20136;-70
2021/12/07 08:43:38;;;;;;;17.42;9.90;;;;;;;;;;20921864;28;20155;-65
2021/12/07 08:54:20;;;;;;;20.80;10.75;;;;;;;;;;20926694;28;20411;-64
2021/12/07 09:04:23;;;;;;;27.25;12.45;;;;;;;;;;20927307;28;20136;-69
2021/12/07 09:14:45;;;;;;;28.23;14.02;;;;;;;;;;20925827;28;20094;-71
2021/12/07 09:25:07;;;;;;;35.28;15.68;;;;;;;;;;20926359;28;20107;-64
2021/12/07 09:35:28;;;;;;;38.58;17.73;;;;;;;;;;20925196;28;20060;-65
2021/12/07 09:45:50;;;;;;;48.38;19.13;;;;;;;;;;20923151;28;20053;-69
2021/12/07 09:56:05;;;;;;;;;;;;;;;;;;20921987;28;20045;-65
2021/12/07 10:06:16;;;;;;;31.77;13.07;;;;;;;;;;20921441;28;19970;-68
2021/12/07 10:16:29;;;;;;;24.35;10.43;;;;;;;;;;20922179;28;20045;-63
2021/12/07 10:26:51;;;;;;;23.83;10.82;;;;;;;;;;20918809;28;20049;-59
2021/12/07 10:37:12;;;;;;;27.90;11.07;;;;;;;;;;20918403;28;20049;-61
2021/12/07 10:47:19;;;;;;;18.27;7.38;;;;;;;;;;20916761;28;20053;-61
2021/12/07 10:57:30;;;;;;;21.08;9.77;;;;;;;;;;20915006;28;20075;-61
2021/12/07 11:07:36;;;;;;;26.55;11.68;;;;;;;;;;20914143;28;20052;-60
2021/12/07 11:17:41;;;;;;;27.95;14.48;;;;;;;;;;20914953;28;20135;-59
2021/12/07 11:38:10;;;;;;;27.95;14.23;;;;;;;;;;20913662;28;20015;-62
2021/12/07 11:48:13;;;;;;;24.65;15.35;;;;;;;;;;20913124;28;20056;-72
2021/12/07 11:58:19;;;;;;;30.73;15.40;;;;;;;;;;20912769;28;20410;-60
2021/12/07 12:08:25;;;;;;;31.55;17.83;;;;;;;;;;20912215;28;20159;-62
2021/12/07 12:18:47;;;;;;;35.72;17.63;;;;;;;;;;20910644;28;20079;-62
2021/12/07 12:28:53;;;;;;;46.00;21.02;;;;;;;;;;20914836;28;20059;-62
2021/12/07 12:39:07;;;;;;;34.53;20.40;;;;;;;;;;20910866;28;20483;-57
2021/12/07 12:49:12;;;;;;;21.55;11.35;;;;;;;;;;20910086;28;20057;-57
2021/12/07 12:59:14;;;;;;;8.25;4.90;;;;;;;;;;20909406;28;20064;-54
2021/12/07 13:09:19;;;;;;;6.13;4.47;;;;;;;;;;20911488;28;20461;-59
2021/12/07 13:19:22;;;;;;;6.72;3.55;;;;;;;;;;20910596;28;20483;-56
2021/12/07 13:29:27;;;;;;;5.45;3.25;;;;;;;;;;20919722;28;20047;-66
2021/12/07 13:39:31;;;;;;;5.95;2.80;;;;;;;;;;20925072;28;20045;-57
2021/12/07 13:49:35;;;;;;;2.97;2.37;;;;;;;;;;20922806;28;20102;-56
2021/12/07 13:59:37;;;;;;;4.80;2.78;;;;;;;;;;20922426;28;20457;-65
2021/12/07 14:09:40;;;;;;;5.47;3.38;;;;;;;;;;20922520;28;20045;-65
2021/12/07 14:19:42;;;;;;;6.25;3.30;;;;;;;;;;20921536;28;20057;-66
2021/12/07 14:29:44;;;;;;;5.45;3.20;;;;;;;;;;20921411;28;20051;-67
2021/12/07 14:39:47;;;;;;;7.18;3.80;;;;;;;;;;20921270;28;20048;-63
2021/12/07 14:49:52;;;;;;;4.07;2.85;;;;;;;;;;20935621;28;20438;-57
2021/12/07 15:00:01;;;;;;;4.03;2.70;;;;;;;;;;20928445;28;20491;-68
2021/12/07 15:10:16;;;;;;;4.82;2.20;;;;;;;;;;20918179;28;20041;-60
2021/12/07 15:20:20;;;;;;;3.53;2.50;;;;;;;;;;20916677;28;20060;-65
2021/12/07 15:30:23;;;;;;;3.97;2.58;;;;;;;;;;20921694;28;20071;-62
2021/12/07 15:40:27;;;;;;;3.10;2.25;;;;;;;;;;20915038;28;20106;-58
2021/12/07 15:50:30;;;;;;;3.40;2.25;;;;;;;;;;20914042;28;20136;-60
2021/12/07 16:00:38;;;;;;;2.67;1.88;;;;;;;;;;20913169;28;20110;-58
2021/12/07 16:10:41;;;;;;;2.53;1.98;;;;;;;;;;20912726;28;20041;-60
2021/12/07 16:20:45;;;;;;;7.40;2.13;;;;;;;;;;20913520;28;20407;-75
2021/12/07 16:30:48;;;;;;;2.70;2.00;;;;;;;;;;20912966;28;20045;-54
2021/12/07 16:40:50;;;;;;;2.72;1.80;;;;;;;;;;20910500;28;20057;-60
2021/12/07 16:50:54;;;;;;;3.78;1.73;;;;;;;;;;20911106;28;20141;-61
2021/12/07 17:00:58;;;;;;;5.78;2.25;;;;;;;;;;20915621;28;20095;-53
2021/12/07 17:11:00;;;;;;;5.57;1.80;;;;;;;;;;20926001;28;20045;-61
2021/12/07 17:21:04;;;;;;;5.97;2.15;;;;;;;;;;20924284;28;20061;-61
2021/12/07 17:31:06;;;;;;;6.70;2.15;;;;;;;;;;20925354;28;20079;-62
2021/12/07 17:41:10;;;;;;;2.17;1.27;;;;;;;;;;20924841;28;20468;-60
2021/12/07 17:51:12;;;;;;;7.60;2.25;;;;;;;;;;20923231;28;20057;-64
2021/12/07 18:01:15;;;;;;;8.80;2.20;;;;;;;;;;20923319;28;20502;-57
2021/12/07 18:11:17;;;;;;;4.05;1.48;;;;;;;;;;20920947;28;20081;-57
2021/12/07 18:21:21;;;;;;;2.03;1.40;;;;;;;;;;20921054;28;20475;-71
2021/12/07 18:31:23;;;;;;;6.93;3.75;;;;;;;;;;20945142;28;20135;-62
2021/12/07 18:41:26;;;;;;;3.55;1.88;;;;;;;;;;20863528;28;20472;-64
2021/12/07 18:51:29;;;;;;;2.95;2.03;;;;;;;;;;20836690;28;20045;-65
2021/12/07 19:01:31;;;;;;;2.58;1.85;;;;;;;;;;20835936;28;20045;-60
2021/12/07 19:11:34;;;;;;;3.20;1.90;;;;;;;;;;20834694;28;20053;-68
2021/12/07 19:21:36;;;;;;;1.80;1.33;;;;;;;;;;20881153;28;20056;-66
2021/12/07 19:31:38;;;;;;;3.47;1.40;;;;;;;;;;20914999;28;20505;-55
2021/12/07 19:41:40;;;;;;;2.55;1.40;;;;;;;;;;20915516;28;20057;-59
2021/12/07 19:51:42;;;;;;;4.55;1.50;;;;;;;;;;20914566;28;20049;-59
2021/12/07 20:01:46;;;;;;;2.88;1.40;;;;;;;;;;20914212;28;20090;-72
2021/12/07 20:11:49;;;;;;;2.73;1.10;;;;;;;;;;20913827;28;20055;-60
2021/12/07 20:21:51;;;;;;;3.88;1.58;;;;;;;;;;20913043;28;20079;-56
2021/12/07 20:31:55;;;;;;;2.58;1.55;;;;;;;;;;20911373;28;20502;-72
2021/12/07 20:41:58;;;;;;;2.90;1.63;;;;;;;;;;20926551;28;20526;-70
2021/12/07 20:52:02;;;;;;;3.15;1.80;;;;;;;;;;20927951;28;20071;-70
2021/12/07 21:02:05;;;;;;;2.60;1.60;;;;;;;;;;20927807;28;20060;-72
2021/12/07 21:12:09;;;;;;;2.65;1.50;;;;;;;;;;20926372;28;20132;-58
2021/12/07 21:22:11;;;;;;;3.72;1.65;;;;;;;;;;20924928;28;20056;-62
2021/12/07 21:32:14;;;;;;;2.13;1.33;;;;;;;;;;20925506;28;20060;-67
2021/12/07 21:42:18;;;;;;;3.08;1.35;;;;;;;;;;20924889;28;20053;-71
2021/12/07 21:52:20;;;;;;;2.50;1.52;;;;;;;;;;20924337;28;20144;-56
2021/12/07 22:02:23;;;;;;;2.45;1.10;;;;;;;;;;20923989;28;20056;-73
2021/12/07 22:12:25;;;;;;;2.13;0.90;;;;;;;;;;20923210;28;20128;-69
2021/12/07 22:22:27;;;;;;;1.80;1.10;;;;;;;;;;20921432;28;20053;-55
2021/12/07 22:32:30;;;;;;;2.63;1.20;;;;;;;;;;20920803;28;20053;-72
2021/12/07 22:42:32;;;;;;;3.13;2.05;;;;;;;;;;20921267;28;20468;-64
2021/12/07 22:52:34;;;;;;;3.95;2.60;;;;;;;;;;20920756;28;20063;-72
2021/12/07 23:02:36;;;;;;;3.80;2.50;;;;;;;;;;20918137;28;20091;-72
2021/12/07 23:12:39;;;;;;;3.08;1.60;;;;;;;;;;20917924;28;20190;-67
2021/12/07 23:22:42;;;;;;;2.28;1.30;;;;;;;;;;20917287;28;20406;-64
2021/12/07 23:32:45;;;;;;;1.95;1.40;;;;;;;;;;20918646;28;20049;-69
2021/12/07 23:42:48;;;;;;;1.65;1.17;;;;;;;;;;20915696;28;20089;-70
2021/12/07 23:52:50;;;;;;;4.07;0.93;;;;;;;;;;20914868;28;20049;-71
